Time;durP1;ratioP1;P1;durP2;ratioP2;P2;SDS_P1;SDS_P2;PMS_P1;PMS_P2;Temp;Humidity;BMP_temperature;BMP_pressure;BME280_temperature;BME280_humidity;BME280_pressure;Samples;Min_cycle;Max_cycle;Signal;HPM_P1;HPM_P2
2022/01/09 00:01:21;;;;;;;2.23;2.10;;;7.20;67.80;;;9.68;53.04;98991.94;4861829;29;20200;-64
2022/01/09 00:03:49;;;;;;;2.90;2.67;;;7.20;67.80;;;9.64;53.55;99001.25;4861328;29;20291;-63
2022/01/09 00:06:17;;;;;;;2.50;2.10;;;7.20;67.70;;;9.64;53.32;98996.00;4860371;29;20220;-61
2022/01/09 00:08:44;;;;;;;3.60;2.17;;;7.20;67.60;;;9.64;53.01;98988.13;4861579;29;20193;-63
2022/01/09 00:11:12;;;;;;;2.87;2.30;;;7.10;67.50;;;9.58;52.98;98981.09;4861209;29;20268;-62
2022/01/09 00:13:40;;;;;;;1.93;1.73;;;7.10;67.20;;;9.60;53.48;98979.06;4861117;29;20294;-63
2022/01/09 00:16:08;;;;;;;2.93;2.23;;;7.20;67.40;;;9.61;53.48;98975.41;4861351;29;20619;-64
2022/01/09 00:18:36;;;;;;;2.00;1.90;;;7.10;67.30;;;9.59;52.99;98978.25;4861506;29;20544;-63
2022/01/09 00:21:06;;;;;;;2.20;2.00;;;7.20;67.40;;;9.62;52.97;98964.72;4861410;29;20271;-63
2022/01/09 00:23:34;;;;;;;2.23;1.90;;;7.10;67.30;;;9.64;53.50;98964.50;4861140;29;20228;-63
2022/01/09 00:26:01;;;;;;;2.17;1.97;;;7.20;67.50;;;9.65;53.47;98963.50;4860836;29;20578;-63
2022/01/09 00:28:29;;;;;;;2.00;1.90;;;7.20;67.40;;;9.71;53.03;98954.75;4861186;29;20200;-63
2022/01/09 00:30:56;;;;;;;2.97;2.47;;;7.20;67.30;;;9.72;52.68;98945.84;4861494;29;20196;-63
2022/01/09 00:33:23;;;;;;;2.40;2.20;;;7.20;67.30;;;9.72;52.72;98948.47;4860668;29;20222;-63
2022/01/09 00:35:53;;;;;;;3.17;2.23;;;7.20;67.30;;;9.72;52.71;98941.41;4861348;29;20584;-63
2022/01/09 00:38:21;;;;;;;1.80;1.70;;;7.20;67.00;;;9.77;52.55;98948.66;4861540;29;20201;-62
2022/01/09 00:40:50;;;;;;;2.20;1.90;;;7.30;67.10;;;9.77;52.73;98933.66;4861314;29;20200;-63
2022/01/09 00:43:17;;;;;;;2.40;2.20;;;7.20;67.00;;;9.73;53.22;98936.94;4860394;29;20225;-63
2022/01/09 00:45:44;;;;;;;1.93;1.73;;;7.20;67.00;;;9.74;52.85;98931.50;4861673;29;20224;-63
2022/01/09 00:48:12;;;;;;;2.20;2.00;;;7.30;67.30;;;9.74;52.90;98928.88;4861025;29;20200;-63
2022/01/09 00:50:40;;;;;;;2.40;2.20;;;7.30;67.40;;;9.74;52.99;98943.81;4861088;29;20244;-64
2022/01/09 00:53:09;;;;;;;2.50;1.90;;;7.30;67.60;;;9.73;53.80;98934.31;4860923;29;20636;-64
2022/01/09 00:55:36;;;;;;;2.50;2.00;;;7.30;67.60;;;9.70;53.25;98924.25;4861564;29;20196;-64
2022/01/09 00:58:03;;;;;;;2.03;1.90;;;7.30;67.70;;;9.70;53.17;98925.03;4861462;29;20225;-62
2022/01/09 01:00:31;;;;;;;2.30;2.10;;;7.30;67.80;;;9.71;53.81;98923.22;4860586;29;20196;-64
2022/01/09 01:02:59;;;;;;;1.90;1.80;;;7.20;67.90;;;9.68;53.43;98916.56;4860526;29;20231;-64
2022/01/09 01:05:26;;;;;;;3.87;1.90;;;7.20;67.90;;;9.66;53.67;98925.69;4860011;29;20234;-64
2022/01/09 01:07:54;;;;;;;2.30;2.10;;;7.20;68.00;;;9.64;53.49;98919.84;4861141;29;20211;-63
2022/01/09 01:10:23;;;;;;;1.80;1.70;;;7.20;68.20;;;9.63;53.67;98915.63;4861328;29;20225;-63
2022/01/09 01:12:50;;;;;;;1.87;1.70;;;7.20;68.30;;;9.67;53.67;98916.78;4861088;29;20199;-63
2022/01/09 01:15:18;;;;;;;2.00;1.80;;;7.20;68.20;;;9.65;53.46;98908.34;4860271;29;20225;-63
2022/01/09 01:17:45;;;;;;;1.87;1.73;;;7.20;68.40;;;9.62;53.81;98903.50;4859833;29;20285;-63
2022/01/09 01:20:13;;;;;;;1.93;1.83;;;7.20;68.40;;;9.62;54.21;98904.31;4861300;29;20196;-63
2022/01/09 01:22:41;;;;;;;2.90;2.00;;;7.20;68.40;;;9.64;54.35;98907.53;4860971;29;20197;-63
2022/01/09 01:25:10;;;;;;;1.67;1.57;;;7.20;68.50;;;9.67;54.02;98906.28;4860806;29;20208;-63
2022/01/09 01:27:38;;;;;;;1.67;1.57;;;7.20;68.50;;;9.68;54.20;98902.63;4861196;29;20279;-63
2022/01/09 01:30:08;;;;;;;1.83;1.70;;;7.20;68.60;;;9.72;54.40;98914.34;4860929;29;20223;-63
2022/01/09 01:32:35;;;;;;;1.97;1.80;;;7.20;68.60;;;9.76;54.16;98899.75;4859751;29;20201;-63
2022/01/09 01:35:04;;;;;;;2.13;1.63;;;7.20;68.50;;;9.74;54.16;98902.59;4860827;29;20252;-62
2022/01/09 01:37:31;;;;;;;1.83;1.60;;;7.30;68.70;;;9.77;54.21;98894.28;4861406;29;20219;-62
2022/01/09 01:39:59;;;;;;;2.10;1.73;;;7.30;68.80;;;9.82;54.18;98898.88;4861278;29;20605;-64
2022/01/09 01:42:26;;;;;;;2.00;1.83;;;7.30;68.80;;;9.83;53.72;98893.44;4860632;29;20207;-64
2022/01/09 01:44:55;;;;;;;1.73;1.53;;;7.30;69.00;;;9.86;54.34;98892.19;4859576;29;20216;-64
2022/01/09 01:47:22;;;;;;;1.40;1.30;;;7.30;69.20;;;9.88;54.60;98896.22;4860698;29;20224;-63
2022/01/09 01:49:50;;;;;;;2.50;1.90;;;7.30;69.30;;;9.85;54.51;98899.25;4860981;29;20206;-63
2022/01/09 01:52:28;;;;;;;1.50;1.40;;;7.30;69.40;;;9.84;54.37;98886.34;4861277;29;20314;-63
2022/01/09 01:54:55;;;;;;;1.73;1.50;;;7.30;69.40;;;9.85;54.80;98887.94;4860692;29;20666;-63
2022/01/09 01:57:23;;;;;;;1.50;1.40;;;7.30;69.70;;;9.83;55.04;98879.47;4861053;29;20203;-63
2022/01/09 01:59:51;;;;;;;1.97;1.67;;;7.30;70.00;;;9.77;54.96;98883.75;4860810;29;20204;-63
2022/01/09 02:02:19;;;;;;;1.70;1.60;;;7.30;70.20;;;9.75;54.99;98893.69;4860989;29;20200;-63
2022/01/09 02:04:47;;;;;;;1.50;1.40;;;7.30;70.10;;;9.72;55.19;98885.44;4860448;29;20228;-63
2022/01/09 02:07:15;;;;;;;1.37;1.20;;;7.30;70.20;;;9.71;55.34;98881.19;4861606;29;20224;-63
2022/01/09 02:09:43;;;;;;;1.33;1.23;;;7.30;70.40;;;9.70;55.50;98879.59;4863956;29;20252;-63
2022/01/09 02:12:11;;;;;;;1.90;1.80;;;7.30;70.60;;;9.69;55.25;98883.25;4863971;29;20201;-63
2022/01/09 02:14:43;;;;;;;1.70;1.60;;;7.20;70.80;;;9.67;55.70;98880.03;4864104;29;20219;-64
2022/01/09 02:17:15;;;;;;;1.53;1.40;;;7.20;70.80;;;9.61;55.60;98886.94;4864300;29;20208;-64
2022/01/09 02:19:53;;;;;;;1.50;1.40;;;7.20;71.10;;;9.56;56.17;98876.25;4863698;29;20200;-63
2022/01/09 02:22:21;;;;;;;1.60;1.50;;;7.20;71.40;;;9.57;56.41;98870.00;4863395;29;20204;-64
2022/01/09 02:24:49;;;;;;;1.60;1.50;;;7.20;71.60;;;9.55;56.54;98883.31;4863715;29;20297;-61
2022/01/09 02:27:17;;;;;;;1.57;1.47;;;7.10;71.80;;;9.50;56.37;98872.69;4863807;29;20735;-63
2022/01/09 02:29:47;;;;;;;1.50;1.40;;;7.10;72.00;;;9.45;57.25;98869.06;4863751;29;20499;-63
2022/01/09 02:32:16;;;;;;;1.40;1.30;;;7.10;72.20;;;9.45;56.93;98879.59;4863265;29;20200;-63
2022/01/09 02:34:47;;;;;;;1.50;1.40;;;7.10;72.30;;;9.43;56.90;98873.75;4863270;29;20276;-63
2022/01/09 02:37:16;;;;;;;2.10;1.40;;;7.00;72.40;;;9.38;57.63;98871.75;4863276;29;20590;-63
2022/01/09 02:39:43;;;;;;;1.43;1.30;;;7.00;72.70;;;9.36;57.09;98878.25;4863760;29;20527;-63
2022/01/09 02:42:18;;;;;;;1.67;1.57;;;7.00;72.70;;;9.31;57.99;98871.00;4863771;29;20200;-62
2022/01/09 02:44:45;;;;;;;1.80;1.63;;;7.00;73.00;;;9.30;57.95;98879.88;4862964;29;20224;-63
2022/01/09 02:47:13;;;;;;;1.60;1.50;;;6.90;73.10;;;9.31;57.59;98876.25;4863649;29;20224;-63
2022/01/09 02:49:45;;;;;;;1.30;1.20;;;7.00;73.20;;;9.36;57.80;98879.06;4863353;29;20193;-63
2022/01/09 02:52:26;;;;;;;1.30;1.20;;;6.90;73.40;;;9.37;58.09;98874.56;4863641;29;20659;-63
2022/01/09 02:55:14;;;;;;;1.50;1.40;;;6.90;73.50;;;9.35;57.64;98871.38;4862770;29;20592;-63
2022/01/09 02:57:44;;;;;;;1.97;1.53;;;6.90;73.70;;;9.34;58.02;98875.81;4861965;29;20596;-63
2022/01/09 03:00:16;;;;;;;1.47;1.37;;;6.90;73.90;;;9.36;58.30;98875.63;4863296;29;20195;-63
2022/01/09 03:02:44;;;;;;;2.00;1.47;;;6.90;74.10;;;9.37;58.01;98877.19;4862871;29;20207;-63
2022/01/09 03:05:13;;;;;;;1.50;1.40;;;6.90;74.20;;;9.39;58.12;98878.59;4863536;29;20189;-64
2022/01/09 03:07:43;;;;;;;1.67;1.40;;;6.90;74.30;;;9.37;57.99;98880.63;4862885;29;20681;-63
2022/01/09 03:10:16;;;;;;;2.00;1.57;;;6.90;74.40;;;9.32;58.12;98877.03;4862555;29;20201;-63
2022/01/09 03:12:43;;;;;;;1.80;1.70;;;6.90;74.60;;;9.28;58.90;98876.66;4862576;29;20204;-62
2022/01/09 03:15:12;;;;;;;1.40;1.30;;;6.90;74.60;;;9.24;59.00;98879.94;4863068;29;20216;-62
2022/01/09 03:17:41;;;;;;;1.60;1.50;;;6.80;74.60;;;9.23;58.67;98875.69;4862897;29;20200;-63
2022/01/09 03:20:15;;;;;;;1.50;1.40;;;6.80;74.90;;;9.25;58.76;98876.28;4862246;29;20193;-64
2022/01/09 03:22:43;;;;;;;1.60;1.50;;;6.80;75.00;;;9.26;58.58;98878.72;4862253;29;20203;-63
2022/01/09 03:25:15;;;;;;;1.63;1.50;;;6.80;75.00;;;9.25;58.75;98877.09;4862977;29;20197;-62
2022/01/09 03:27:45;;;;;;;1.50;1.40;;;6.80;75.20;;;9.20;59.45;98884.00;4862196;29;20223;-63
2022/01/09 03:30:13;;;;;;;1.60;1.50;;;6.70;75.30;;;9.17;59.06;98879.97;4863130;29;20277;-63
2022/01/09 03:32:41;;;;;;;1.67;1.57;;;6.70;75.30;;;9.18;59.49;98881.56;4861961;29;20196;-63
2022/01/09 03:35:13;;;;;;;1.50;1.40;;;6.70;75.40;;;9.19;59.09;98883.19;4862702;29;20197;-63
2022/01/09 03:37:42;;;;;;;1.60;1.40;;;6.70;75.60;;;9.20;59.23;98881.38;4862784;29;20197;-63
2022/01/09 03:40:15;;;;;;;1.60;1.50;;;6.70;75.80;;;9.23;59.57;98873.88;4863085;29;20283;-63
2022/01/09 03:42:42;;;;;;;1.70;1.50;;;6.70;75.90;;;9.26;59.73;98870.03;4862155;29;20556;-64
2022/01/09 03:45:10;;;;;;;1.80;1.67;;;6.70;75.90;;;9.29;59.16;98872.22;4862253;29;20201;-63
2022/01/09 03:47:39;;;;;;;1.80;1.60;;;6.70;76.10;;;9.28;59.10;98866.16;4862550;29;20676;-63
2022/01/09 03:50:11;;;;;;;1.70;1.60;;;6.70;76.00;;;9.25;59.37;98868.41;4862519;29;20302;-64
2022/01/09 03:52:39;;;;;;;1.50;1.40;;;6.70;76.00;;;9.28;59.69;98874.03;4862170;29;20284;-63
2022/01/09 03:55:12;;;;;;;1.60;1.50;;;6.70;76.10;;;9.33;59.21;98873.41;4862497;29;20200;-63
2022/01/09 03:57:41;;;;;;;1.60;1.50;;;6.80;76.40;;;9.33;59.04;98863.72;4860986;29;20204;-62
2022/01/09 04:00:14;;;;;;;2.10;1.53;;;6.80;76.30;;;9.34;59.30;98870.56;4861799;29;20235;-63
2022/01/09 04:02:44;;;;;;;1.83;1.73;;;6.80;76.40;;;9.36;59.75;98871.16;4861928;29;20202;-62
2022/01/09 04:05:11;;;;;;;2.47;1.67;;;6.80;76.50;;;9.33;59.89;98878.66;4862247;29;20197;-63
2022/01/09 04:07:39;;;;;;;1.50;1.40;;;6.80;76.50;;;9.31;59.56;98878.88;4861709;29;20306;-63
2022/01/09 04:10:20;;;;;;;1.80;1.70;;;6.80;76.50;;;9.30;59.80;98879.88;4862053;29;20650;-63
2022/01/09 04:12:51;;;;;;;1.60;1.50;;;6.80;76.60;;;9.26;59.76;98894.44;4860517;29;20276;-63
2022/01/09 04:15:19;;;;;;;1.70;1.60;;;6.80;76.60;;;9.22;60.17;98895.88;4861265;29;20204;-63
2022/01/09 04:17:54;;;;;;;1.60;1.50;;;6.80;76.60;;;9.21;59.78;98891.66;4862075;29;20726;-63
2022/01/09 04:20:25;;;;;;;2.87;1.60;;;6.70;76.70;;;9.17;59.91;98889.66;4861906;29;20197;-63
2022/01/09 04:22:53;;;;;;;1.87;1.77;;;6.70;76.80;;;9.18;60.53;98901.75;4860983;29;20228;-63
2022/01/09 04:25:22;;;;;;;2.80;1.90;;;6.70;76.90;;;9.14;60.24;98890.06;4861652;29;20227;-62
2022/01/09 04:27:53;;;;;;;1.63;1.53;;;6.70;76.90;;;9.12;60.18;98898.19;4861703;29;20232;-63
2022/01/09 04:30:21;;;;;;;1.60;1.50;;;6.70;76.90;;;9.11;60.04;98901.81;4861481;29;20271;-63
2022/01/09 04:32:48;;;;;;;1.90;1.37;;;6.70;77.10;;;9.11;60.42;98893.13;4860655;29;20566;-63
2022/01/09 04:35:16;;;;;;;1.47;1.40;;;6.70;77.30;;;9.14;60.68;98898.75;4861583;29;20229;-62
2022/01/09 04:37:44;;;;;;;1.57;1.47;;;6.60;77.30;;;9.11;60.51;98901.81;4861432;29;20232;-61
2022/01/09 04:40:13;;;;;;;2.07;1.87;;;6.60;77.00;;;9.07;60.33;98900.63;4861365;29;20197;-62
2022/01/09 04:43:01;;;;;;;2.00;1.73;;;6.60;76.80;;;9.04;59.95;98895.78;4860130;29;20206;-63
2022/01/09 04:45:30;;;;;;;1.90;1.80;;;6.60;77.00;;;8.98;60.62;98901.88;4861233;29;20185;-56
2022/01/09 04:48:02;;;;;;;2.00;1.90;;;6.60;76.80;;;8.94;60.49;98900.66;4860955;29;20221;-58
2022/01/09 04:50:32;;;;;;;1.80;1.70;;;6.50;76.80;;;8.89;60.20;98905.75;4861533;29;20718;-64
2022/01/09 04:53:06;;;;;;;1.80;1.70;;;6.50;76.80;;;8.84;60.59;98906.38;4861620;29;20244;-64
2022/01/09 04:55:38;;;;;;;2.00;1.90;;;6.40;76.80;;;8.79;60.21;98908.03;4862204;29;20193;-64
2022/01/09 04:58:06;;;;;;;2.43;1.93;;;6.40;77.00;;;8.76;60.91;98908.44;4861046;29;20595;-62
2022/01/09 05:00:35;;;;;;;2.03;1.93;;;6.40;77.10;;;8.75;61.26;98906.81;4861170;29;20198;-62
2022/01/09 05:03:03;;;;;;;1.80;1.70;;;6.40;77.30;;;8.75;61.04;98906.81;4860778;29;20220;-63
2022/01/09 05:05:31;;;;;;;1.93;1.73;;;6.30;77.40;;;8.77;61.26;98910.84;4860267;29;20200;-62
2022/01/09 05:07:59;;;;;;;1.63;1.53;;;6.40;77.60;;;8.82;60.82;98913.63;4861460;29;20224;-62
2022/01/09 05:10:26;;;;;;;2.27;2.10;;;6.40;77.70;;;8.86;60.99;98921.91;4860845;29;20193;-63
2022/01/09 05:12:53;;;;;;;1.70;1.60;;;6.40;77.90;;;8.90;60.47;98933.59;4860642;29;20218;-62
2022/01/09 05:15:23;;;;;;;2.20;2.00;;;6.40;77.90;;;8.95;60.56;98930.34;4860870;29;20288;-62
2022/01/09 05:17:57;;;;;;;2.00;1.90;;;6.40;78.00;;;8.93;60.96;98937.63;4860401;29;20200;-61
2022/01/09 05:20:24;;;;;;;2.07;1.97;;;6.40;78.10;;;8.91;60.67;98943.09;4861298;29;20200;-63
2022/01/09 05:22:52;;;;;;;2.40;2.20;;;6.40;78.10;;;8.88;61.12;98948.75;4860703;29;20250;-64
2022/01/09 05:25:19;;;;;;;2.10;2.00;;;6.40;78.10;;;8.84;60.91;98943.09;4860763;29;20192;-64
2022/01/09 05:27:47;;;;;;;2.10;2.00;;;6.40;78.00;;;8.82;61.34;98949.56;4860710;29;20220;-64
2022/01/09 05:30:14;;;;;;;1.73;1.63;;;6.30;78.00;;;8.80;61.04;98951.59;4861096;29;20676;-63
2022/01/09 05:32:42;;;;;;;2.10;2.00;;;6.40;78.00;;;8.80;61.29;98951.59;4860218;29;20221;-64
2022/01/09 05:35:15;;;;;;;2.20;2.00;;;6.40;77.90;;;8.79;60.83;98957.84;4860596;29;20207;-65
2022/01/09 05:37:43;;;;;;;1.70;1.60;;;6.30;77.80;;;8.81;60.93;98958.44;4860633;29;20193;-62
2022/01/09 05:40:11;;;;;;;1.77;1.67;;;6.30;77.50;;;8.78;60.31;98958.84;4860708;29;20664;-62
2022/01/09 05:42:39;;;;;;;1.70;1.60;;;6.30;77.50;;;8.74;60.73;98970.78;4862621;29;20199;-60
2022/01/09 05:45:08;;;;;;;1.50;1.40;;;6.30;77.40;;;8.68;60.85;98968.97;4864984;29;20200;-62
2022/01/09 05:47:36;;;;;;;1.60;1.50;;;6.20;77.30;;;8.69;60.77;98973.22;4864442;29;20252;-62
2022/01/09 05:50:04;;;;;;;2.37;1.60;;;6.20;77.30;;;8.67;60.41;98970.00;4864082;29;20199;-62
2022/01/09 05:52:33;;;;;;;1.50;1.40;;;6.20;77.00;;;8.66;60.71;98971.00;4863167;29;20245;-64
2022/01/09 05:55:01;;;;;;;2.00;1.90;;;6.20;77.30;;;8.64;60.39;98978.25;4864285;29;20200;-60
2022/01/09 05:57:29;;;;;;;1.60;1.50;;;6.20;77.20;;;8.62;60.48;98975.03;4864487;29;20197;-60
2022/01/09 05:59:56;;;;;;;1.70;1.60;;;6.10;77.00;;;8.60;60.26;98977.06;4864265;29;20203;-58
2022/01/09 06:02:23;;;;;;;1.90;1.80;;;6.10;77.00;;;8.59;60.55;98975.44;4863381;29;20202;-64
2022/01/09 06:04:51;;;;;;;1.80;1.70;;;6.10;76.90;;;8.63;59.83;98987.13;4863877;29;20289;-63
2022/01/09 06:07:18;;;;;;;1.80;1.70;;;6.10;77.00;;;8.65;60.17;98987.75;4863577;29;20580;-62
2022/01/09 06:09:47;;;;;;;1.60;1.50;;;6.10;77.10;;;8.65;60.02;98995.63;4864080;29;20196;-63
2022/01/09 06:12:14;;;;;;;1.87;1.47;;;6.10;77.00;;;8.64;60.05;98997.44;4864143;29;20193;-60
2022/01/09 06:14:41;;;;;;;1.70;1.60;;;6.10;77.00;;;8.64;60.06;98994.00;4863226;29;20300;-62
2022/01/09 06:17:09;;;;;;;2.00;1.90;;;6.10;76.90;;;8.64;60.15;99004.50;4863784;29;20224;-62
2022/01/09 06:19:37;;;;;;;1.33;1.33;;;6.10;76.90;;;8.61;60.09;99005.69;4863400;29;20607;-62
2022/01/09 06:22:05;;;;;;;1.80;1.70;;;6.10;76.70;;;8.62;60.25;99007.31;4863341;29;20244;-62
2022/01/09 06:24:32;;;;;;;1.77;1.67;;;6.00;76.90;;;8.64;59.95;99007.91;4862276;29;20767;-62
2022/01/09 06:27:01;;;;;;;1.90;1.77;;;6.00;76.90;;;8.64;59.96;99014.97;4863605;29;20225;-62
2022/01/09 06:29:28;;;;;;;2.00;1.90;;;6.00;76.90;;;8.58;60.07;99010.56;4863664;29;20225;-62
2022/01/09 06:31:55;;;;;;;1.87;1.77;;;6.10;76.80;;;8.54;60.01;99014.56;4863550;29;20201;-62
2022/01/09 06:34:22;;;;;;;1.80;1.70;;;6.00;76.80;;;8.56;59.93;99015.19;4863159;29;20301;-62
2022/01/09 06:36:50;;;;;;;1.87;1.77;;;6.00;76.80;;;8.57;60.03;99024.66;4863605;29;20222;-62
2022/01/09 06:39:17;;;;;;;2.10;2.00;;;6.00;77.00;;;8.57;60.43;99019.44;4863196;29;20639;-61
2022/01/09 06:41:44;;;;;;;2.00;1.90;;;6.00;77.10;;;8.57;60.33;99024.66;4863781;29;20201;-62
2022/01/09 06:44:13;;;;;;;2.10;2.00;;;6.00;77.20;;;8.59;60.47;99027.88;4863470;29;20687;-60
2022/01/09 06:46:40;;;;;;;2.30;2.20;;;6.00;77.30;;;8.61;60.02;99031.09;4863183;29;20276;-62
2022/01/09 06:49:08;;;;;;;2.43;2.23;;;6.00;77.20;;;8.62;60.33;99030.13;4863246;29;20207;-62
2022/01/09 06:51:35;;;;;;;2.43;2.23;;;6.00;77.30;;;8.61;60.37;99031.91;4863369;29;20695;-61
2022/01/09 06:54:03;;;;;;;2.03;1.93;;;6.00;77.30;;;8.61;60.42;99031.09;4862300;29;20264;-62
2022/01/09 06:56:30;;;;;;;2.20;2.10;;;6.00;77.40;;;8.61;60.55;99041.59;4862943;29;20202;-62
2022/01/09 06:58:58;;;;;;;2.10;1.90;;;6.00;77.60;;;8.66;60.47;99033.94;4863028;29;20679;-62
2022/01/09 07:01:26;;;;;;;2.60;2.20;;;6.00;77.60;;;8.69;60.35;99049.25;4862896;29;20239;-62
2022/01/09 07:03:53;;;;;;;2.13;2.03;;;6.00;77.70;;;8.69;59.73;99055.31;4862548;29;20743;-62
2022/01/09 07:06:21;;;;;;;2.77;2.57;;;6.00;77.60;;;8.71;60.48;99057.72;4863251;29;20697;-63
2022/01/09 07:08:48;;;;;;;2.60;2.40;;;6.10;78.00;;;8.75;60.19;99059.75;4862730;29;20222;-62
2022/01/09 07:11:16;;;;;;;2.03;1.93;;;6.10;77.90;;;8.77;60.30;99067.41;4861793;29;20208;-63
2022/01/09 07:13:43;;;;;;;2.00;1.90;;;6.10;77.90;;;8.79;60.33;99065.41;4862312;29;20651;-59
2022/01/09 07:16:10;;;;;;;2.47;2.37;;;6.10;77.90;;;8.76;60.23;99060.56;4862892;29;20263;-63
2022/01/09 07:18:39;;;;;;;2.87;2.67;;;6.10;77.80;;;8.76;60.42;99076.28;4862733;29;20200;-61
2022/01/09 07:21:06;;;;;;;2.53;2.33;;;6.10;77.70;;;8.77;60.58;99083.16;4863012;29;20674;-62
2022/01/09 07:23:34;;;;;;;2.53;2.40;;;6.10;77.80;;;8.79;60.13;99081.13;4862206;29;20686;-62
2022/01/09 07:26:01;;;;;;;2.60;2.40;;;6.10;77.90;;;8.81;60.44;99076.47;4862411;29;20217;-62
2022/01/09 07:28:28;;;;;;;2.27;2.13;;;6.10;77.90;;;8.80;60.04;99094.03;4861876;29;20220;-62
2022/01/09 07:30:56;;;;;;;2.80;2.60;;;6.20;77.90;;;8.84;60.55;99089.19;4862167;29;20281;-62
2022/01/09 07:33:23;;;;;;;3.30;3.10;;;6.20;78.00;;;8.81;60.24;99092.22;4861661;29;20214;-62
2022/01/09 07:35:52;;;;;;;2.80;2.60;;;6.20;78.00;;;8.81;60.50;99094.84;4862722;29;20539;-62
2022/01/09 07:38:19;;;;;;;2.93;2.73;;;6.20;77.90;;;8.82;60.20;99099.88;4862213;29;20692;-62
2022/01/09 07:40:47;;;;;;;2.47;2.37;;;6.20;78.00;;;8.87;60.24;99120.25;4862264;29;20202;-62
2022/01/09 07:43:14;;;;;;;2.87;2.67;;;6.20;78.00;;;8.95;60.17;99116.63;4861664;29;20218;-62
2022/01/09 07:45:42;;;;;;;4.13;3.83;;;6.20;78.30;;;8.91;60.11;99118.84;4861879;29;20234;-62
2022/01/09 07:48:09;;;;;;;3.30;3.10;;;6.20;78.20;;;8.90;60.35;99114.59;4861568;29;20224;-62
2022/01/09 07:50:37;;;;;;;5.10;4.00;;;6.20;78.00;;;8.94;60.33;99128.13;4862507;29;20205;-62
2022/01/09 07:53:05;;;;;;;3.83;3.43;;;6.20;78.20;;;9.01;60.21;99127.09;4861902;29;20224;-62
2022/01/09 07:55:33;;;;;;;4.83;4.43;;;6.20;78.50;;;9.07;60.16;99136.78;4862169;29;20269;-62
2022/01/09 07:58:00;;;;;;;4.27;3.97;;;6.30;78.80;;;9.19;60.21;99134.34;4862156;29;20216;-62
2022/01/09 08:00:27;;;;;;;4.43;4.03;;;6.30;79.00;;;9.28;59.92;99131.28;4861271;29;20196;-62
2022/01/09 08:02:55;;;;;;;5.70;4.87;;;6.30;79.10;;;9.36;59.57;99138.97;4861574;29;20295;-62
2022/01/09 08:05:22;;;;;;;5.30;4.80;;;6.30;79.10;;;9.43;59.66;99142.38;4861833;29;20197;-63
2022/01/09 08:07:50;;;;;;;7.27;4.53;;;6.40;79.30;;;9.50;59.71;99145.78;4861772;29;20253;-61
2022/01/09 08:10:19;;;;;;;5.80;4.90;;;6.50;79.40;;;9.58;60.11;99147.34;4861844;29;20251;-60
2022/01/09 08:12:46;;;;;;;5.47;4.57;;;6.50;79.50;;;9.65;59.76;99139.47;4861327;29;20587;-65
2022/01/09 08:15:14;;;;;;;6.73;4.37;;;6.60;79.60;;;9.72;59.48;99148.13;4861642;29;20692;-62
2022/01/09 08:17:45;;;;;;;7.30;4.70;;;6.60;79.60;;;9.79;59.47;99156.78;4860978;29;20668;-62
2022/01/09 08:20:14;;;;;;;4.80;4.30;;;6.70;79.70;;;9.86;59.72;99154.94;4861945;29;20203;-62
2022/01/09 08:22:43;;;;;;;5.33;4.83;;;6.70;79.60;;;9.94;59.91;99162.56;4861208;29;20224;-62
2022/01/09 08:25:11;;;;;;;4.67;4.27;;;6.80;79.60;;;10.00;59.46;99162.56;4861837;29;20276;-62
2022/01/09 08:27:40;;;;;;;6.00;4.57;;;6.90;79.60;;;10.08;59.54;99166.75;4861459;29;20303;-62
2022/01/09 08:30:10;;;;;;;5.80;4.63;;;6.90;79.50;;;10.16;59.29;99171.78;4861072;29;20196;-62
2022/01/09 08:32:38;;;;;;;5.03;4.23;;;7.00;79.60;;;10.24;59.39;99176.81;4861161;29;20547;-63
2022/01/09 08:35:08;;;;;;;6.60;4.10;;;7.10;79.60;;;10.31;59.10;99180.22;4843012;29;20539;-63
2022/01/09 08:37:36;;;;;;;7.97;4.17;;;7.10;79.50;;;10.37;59.12;99187.25;4843350;29;20288;-60
2022/01/09 08:40:05;;;;;;;3.87;3.57;;;7.20;79.60;;;10.45;58.99;99187.00;4844666;29;20201;-63
2022/01/09 08:42:32;;;;;;;6.23;4.27;;;7.20;79.60;;;10.54;59.03;99191.00;4842920;29;20216;-63
2022/01/09 08:45:01;;;;;;;5.90;4.17;;;7.30;79.60;;;10.61;58.75;99199.66;4843259;29;20280;-63
2022/01/09 08:47:28;;;;;;;3.80;3.10;;;7.40;79.60;;;10.68;58.77;99199.59;4842497;29;20570;-63
2022/01/09 08:49:56;;;;;;;6.73;4.13;;;7.40;79.50;;;10.74;59.03;99204.81;4854234;29;20207;-63
2022/01/09 08:52:23;;;;;;;4.70;3.40;;;7.50;79.70;;;10.83;58.83;99208.00;4860835;29;20197;-64
2022/01/09 08:54:51;;;;;;;7.87;3.20;;;7.60;79.80;;;10.89;58.72;99207.13;4861443;29;20244;-63
2022/01/09 08:57:18;;;;;;;9.07;2.87;;;7.60;79.90;;;10.96;59.26;99217.63;4861938;29;20292;-63
2022/01/09 08:59:46;;;;;;;5.30;2.03;;;7.70;80.10;;;11.02;58.74;99211.50;4860944;29;20189;-63
2022/01/09 09:02:14;;;;;;;6.77;2.43;;;7.80;80.20;;;11.08;59.55;99213.28;4861172;29;20299;-63
2022/01/09 09:04:42;;;;;;;8.40;2.70;;;7.90;80.40;;;11.14;59.39;99215.03;4860683;29;20224;-63
2022/01/09 09:07:11;;;;;;;6.23;2.50;;;7.90;80.40;;;11.18;59.56;99227.56;4861013;29;20201;-62
2022/01/09 09:09:39;;;;;;;7.57;2.90;;;8.00;80.60;;;11.21;59.47;99231.59;4861537;29;20220;-63
2022/01/09 09:12:07;;;;;;;4.13;2.20;;;8.10;80.70;;;11.26;59.46;99224.66;4860363;29;20298;-62
2022/01/09 09:14:35;;;;;;;4.83;1.80;;;8.10;80.60;;;11.29;59.98;99226.06;4860768;29;20212;-61
2022/01/09 09:17:02;;;;;;;6.13;2.50;;;8.20;80.60;;;11.33;59.46;99238.56;4864117;29;20204;-62
2022/01/09 09:19:32;;;;;;;6.83;2.23;;;8.20;80.50;;;11.38;59.57;99243.19;4865558;29;20192;-63
2022/01/09 09:21:59;;;;;;;5.97;2.40;;;8.30;80.40;;;11.43;59.14;99248.63;4864056;29;20208;-62
2022/01/09 09:24:27;;;;;;;5.43;2.20;;;8.30;80.30;;;11.47;59.67;99247.16;4863988;29;20686;-64
2022/01/09 09:26:54;;;;;;;6.20;2.30;;;8.40;80.20;;;11.52;59.40;99257.84;4864331;29;20197;-64
2022/01/09 09:29:21;;;;;;;11.77;2.60;;;8.40;80.10;;;11.58;59.66;99270.97;4864348;29;20216;-64
2022/01/09 09:31:49;;;;;;;7.73;2.13;;;8.50;80.10;;;11.65;59.46;99278.78;4864683;29;20643;-63
2022/01/09 09:34:16;;;;;;;5.67;2.17;;;8.50;80.00;;;11.71;59.06;99280.59;4864538;29;20578;-64
2022/01/09 09:36:45;;;;;;;8.40;2.93;;;8.50;80.00;;;11.75;59.23;99281.78;4864390;29;20197;-64
2022/01/09 09:39:12;;;;;;;10.53;2.50;;;8.60;80.00;;;11.79;59.01;99282.16;4864036;29;20203;-63
2022/01/09 09:41:41;;;;;;;9.00;2.60;;;8.60;79.80;;;11.83;59.25;99291.25;4864525;29;20611;-64
2022/01/09 09:44:09;;;;;;;8.07;2.47;;;8.70;79.70;;;11.88;58.73;99294.84;4864184;29;20300;-64
2022/01/09 09:46:37;;;;;;;7.63;2.33;;;8.70;79.70;;;11.94;58.66;99301.88;4864388;29;20196;-64
2022/01/09 09:49:05;;;;;;;6.60;2.37;;;8.70;80.20;;;11.99;59.04;99307.28;4863189;29;20228;-64
2022/01/09 09:51:33;;;;;;;10.63;3.17;;;8.80;79.20;;;12.01;58.75;99307.88;4864047;29;20197;-64
2022/01/09 09:54:02;;;;;;;7.70;2.13;;;8.80;79.10;;;12.01;58.50;99318.41;4863539;29;20347;-61
2022/01/09 09:56:30;;;;;;;7.10;2.70;;;8.90;79.30;;;12.04;58.52;99318.00;4864405;29;20196;-64
2022/01/09 09:58:59;;;;;;;9.63;2.87;;;8.90;79.00;;;12.08;58.43;99319.16;4864195;29;20219;-64
2022/01/09 10:01:30;;;;;;;8.63;2.47;;;8.90;78.80;;;12.10;58.42;99322.38;4864150;29;20197;-63
2022/01/09 10:04:00;;;;;;;7.57;2.30;;;9.00;78.80;;;12.12;58.44;99325.59;4863715;29;20225;-64
2022/01/09 10:06:40;;;;;;;8.13;2.67;;;9.00;78.70;;;12.14;58.24;99333.31;4863973;29;20200;-64
2022/01/09 10:09:12;;;;;;;9.47;2.77;;;9.00;78.60;;;12.18;58.11;99335.28;4863848;29;20224;-64
2022/01/09 10:11:47;;;;;;;13.00;2.97;;;9.10;78.60;;;12.18;57.94;99335.28;4864049;29;20634;-64
2022/01/09 10:14:17;;;;;;;8.83;2.47;;;9.10;78.60;;;12.19;58.04;99347.44;4863354;29;20303;-63
2022/01/09 10:17:10;;;;;;;8.93;2.93;;;9.10;78.60;;;12.14;58.27;99344.66;4863575;29;20205;-63
2022/01/09 10:19:43;;;;;;;13.63;2.80;;;9.10;78.50;;;12.17;58.21;99354.75;4863902;29;20204;-63
2022/01/09 10:22:33;;;;;;;8.70;2.53;;;9.10;78.40;;;12.15;58.05;99356.81;4863926;29;20293;-63
2022/01/09 10:25:32;;;;;;;10.83;3.10;;;9.20;78.40;;;12.14;58.26;99359.69;4863699;29;20193;-64
2022/01/09 10:28:04;;;;;;;9.20;2.70;;;9.20;78.40;;;12.20;58.34;99362.25;4862052;29;20236;-63
2022/01/09 10:30:35;;;;;;;15.23;3.23;;;9.20;78.40;;;12.26;58.28;99368.50;4864131;29;20200;-64
2022/01/09 10:33:07;;;;;;;10.57;3.10;;;9.20;78.40;;;12.30;58.26;99358.28;4862675;29;20220;-64
2022/01/09 10:35:37;;;;;;;7.43;2.67;;;9.20;78.40;;;12.34;58.13;99370.03;4863326;29;20224;-64
2022/01/09 10:38:11;;;;;;;7.63;3.03;;;9.30;78.50;;;12.35;58.19;99372.44;4863103;29;20193;-64